Terminal Aerodrome Forecast
Issued by NWS

Home | Current Version | Previous Version | Text Only | Print | Product List | Glossary On
Versions: 1 2 3 4 5 6 7 8 9 10 11 12 13 14 15 16 17 18
000
FTUS44 KLZK 292300
TAFPBF
TAF
KPBF 292336Z 3000/3024 18007KT P6SM SKC
     FM300400 27009KT P6SM OVC050
      TEMPO 3005/3009 5SM TSRA BR OVC025CB
     FM300900 36006KT P6SM BKN060
     FM301500 07007KT P6SM SCT250=

USA.gov is the U.S. government's official web portal to all federal, state and local government web resources and services.